sensor_id;sensor_type;location;lat;lon;timestamp;temperature;humidity
17178;DHT22;8704;52.006;4.374;2022-11-09T00:01:00;13.30;99.90
17178;DHT22;8704;52.006;4.374;2022-11-09T00:03:29;13.40;99.90
17178;DHT22;8704;52.006;4.374;2022-11-09T00:05:57;13.40;99.90
17178;DHT22;8704;52.006;4.374;2022-11-09T00:08:26;13.30;99.90
17178;DHT22;8704;52.006;4.374;2022-11-09T00:10:59;13.30;99.90
17178;DHT22;8704;52.006;4.374;2022-11-09T00:13:29;13.30;99.90
17178;DHT22;8704;52.006;4.374;2022-11-09T00:15:57;13.30;99.90
17178;DHT22;8704;52.006;4.374;2022-11-09T00:18:25;13.20;99.90
17178;DHT22;8704;52.006;4.374;2022-11-09T00:20:53;13.20;99.90
17178;DHT22;8704;52.006;4.374;2022-11-09T00:23:22;13.10;99.90
17178;DHT22;8704;52.006;4.374;2022-11-09T00:25:50;13.10;99.90
17178;DHT22;8704;52.006;4.374;2022-11-09T00:28:17;13.10;99.90
17178;DHT22;8704;52.006;4.374;2022-11-09T00:30:47;13.00;99.90
17178;DHT22;8704;52.006;4.374;2022-11-09T00:33:15;13.00;99.90
17178;DHT22;8704;52.006;4.374;2022-11-09T00:35:43;12.90;99.90
17178;DHT22;8704;52.006;4.374;2022-11-09T00:38:11;12.90;99.90
17178;DHT22;8704;52.006;4.374;2022-11-09T00:40:39;12.80;99.90
17178;DHT22;8704;52.006;4.374;2022-11-09T00:43:07;12.80;99.90
17178;DHT22;8704;52.006;4.374;2022-11-09T00:45:36;12.80;99.90
17178;DHT22;8704;52.006;4.374;2022-11-09T00:48:05;12.80;99.90
17178;DHT22;8704;52.006;4.374;2022-11-09T00:50:33;12.90;99.90
17178;DHT22;8704;52.006;4.374;2022-11-09T00:53:01;12.80;99.90
17178;DHT22;8704;52.006;4.374;2022-11-09T00:55:29;12.80;99.90
17178;DHT22;8704;52.006;4.374;2022-11-09T00:57:57;12.80;99.90
17178;DHT22;8704;52.006;4.374;2022-11-09T01:00:25;12.80;99.90
17178;DHT22;8704;52.006;4.374;2022-11-09T01:02:53;12.70;99.90
17178;DHT22;8704;52.006;4.374;2022-11-09T01:05:22;12.70;99.90
17178;DHT22;8704;52.006;4.374;2022-11-09T01:07:50;12.70;99.90
17178;DHT22;8704;52.006;4.374;2022-11-09T01:10:18;12.70;99.90
17178;DHT22;8704;52.006;4.374;2022-11-09T01:12:46;12.60;99.90
17178;DHT22;8704;52.006;4.374;2022-11-09T01:15:14;12.60;99.90
17178;DHT22;8704;52.006;4.374;2022-11-09T01:17:42;12.70;99.90
17178;DHT22;8704;52.006;4.374;2022-11-09T01:20:11;12.50;99.90
17178;DHT22;8704;52.006;4.374;2022-11-09T01:22:41;12.60;99.90
17178;DHT22;8704;52.006;4.374;2022-11-09T01:25:09;12.60;99.90
17178;DHT22;8704;52.006;4.374;2022-11-09T01:27:36;12.70;99.90
17178;DHT22;8704;52.006;4.374;2022-11-09T01:30:06;12.60;99.90
17178;DHT22;8704;52.006;4.374;2022-11-09T01:32:34;12.60;99.90
17178;DHT22;8704;52.006;4.374;2022-11-09T01:35:02;12.50;99.90
17178;DHT22;8704;52.006;4.374;2022-11-09T01:37:30;12.40;99.90
17178;DHT22;8704;52.006;4.374;2022-11-09T01:40:00;12.50;99.90
17178;DHT22;8704;52.006;4.374;2022-11-09T01:42:28;12.50;99.90
17178;DHT22;8704;52.006;4.374;2022-11-09T01:45:21;12.50;99.90
17178;DHT22;8704;52.006;4.374;2022-11-09T01:47:50;12.50;99.90
17178;DHT22;8704;52.006;4.374;2022-11-09T01:50:25;12.40;99.90
17178;DHT22;8704;52.006;4.374;2022-11-09T01:52:55;12.50;99.90
17178;DHT22;8704;52.006;4.374;2022-11-09T01:55:24;12.50;99.90
17178;DHT22;8704;52.006;4.374;2022-11-09T01:57:56;12.50;99.90
17178;DHT22;8704;52.006;4.374;2022-11-09T02:00:25;12.70;99.90
17178;DHT22;8704;52.006;4.374;2022-11-09T02:02:55;12.50;99.90
17178;DHT22;8704;52.006;4.374;2022-11-09T02:05:28;12.60;99.90
17178;DHT22;8704;52.006;4.374;2022-11-09T02:07:56;12.60;99.90
17178;DHT22;8704;52.006;4.374;2022-11-09T02:10:32;12.60;99.90
17178;DHT22;8704;52.006;4.374;2022-11-09T02:13:02;12.60;99.90
17178;DHT22;8704;52.006;4.374;2022-11-09T02:15:30;12.60;99.90
17178;DHT22;8704;52.006;4.374;2022-11-09T02:17:59;12.60;99.90
17178;DHT22;8704;52.006;4.374;2022-11-09T02:20:28;12.50;99.90
17178;DHT22;8704;52.006;4.374;2022-11-09T02:22:56;12.60;99.90
17178;DHT22;8704;52.006;4.374;2022-11-09T02:25:25;12.50;99.90
17178;DHT22;8704;52.006;4.374;2022-11-09T02:27:53;12.50;99.90
17178;DHT22;8704;52.006;4.374;2022-11-09T02:30:21;12.50;99.90
17178;DHT22;8704;52.006;4.374;2022-11-09T02:32:50;12.40;99.90
17178;DHT22;8704;52.006;4.374;2022-11-09T02:35:18;12.40;99.90
17178;DHT22;8704;52.006;4.374;2022-11-09T02:37:49;12.40;99.90
17178;DHT22;8704;52.006;4.374;2022-11-09T02:40:20;12.50;99.90
17178;DHT22;8704;52.006;4.374;2022-11-09T02:42:49;12.40;99.90
17178;DHT22;8704;52.006;4.374;2022-11-09T02:45:17;12.40;99.90
17178;DHT22;8704;52.006;4.374;2022-11-09T02:47:45;12.40;99.90
17178;DHT22;8704;52.006;4.374;2022-11-09T02:50:13;12.40;99.90
17178;DHT22;8704;52.006;4.374;2022-11-09T02:52:41;12.40;99.90
17178;DHT22;8704;52.006;4.374;2022-11-09T02:55:10;12.30;99.90
17178;DHT22;8704;52.006;4.374;2022-11-09T02:57:38;12.30;99.90
17178;DHT22;8704;52.006;4.374;2022-11-09T03:00:07;12.30;99.90
17178;DHT22;8704;52.006;4.374;2022-11-09T03:02:36;12.30;99.90
17178;DHT22;8704;52.006;4.374;2022-11-09T03:05:04;12.30;99.90
17178;DHT22;8704;52.006;4.374;2022-11-09T03:07:32;12.30;99.90
17178;DHT22;8704;52.006;4.374;2022-11-09T03:10:00;12.30;99.90
17178;DHT22;8704;52.006;4.374;2022-11-09T03:12:30;12.30;99.90
17178;DHT22;8704;52.006;4.374;2022-11-09T03:14:59;12.30;99.90
17178;DHT22;8704;52.006;4.374;2022-11-09T03:17:27;12.30;99.90
17178;DHT22;8704;52.006;4.374;2022-11-09T03:19:55;12.30;99.90
17178;DHT22;8704;52.006;4.374;2022-11-09T03:22:23;12.20;99.90
17178;DHT22;8704;52.006;4.374;2022-11-09T03:24:51;12.30;99.90
17178;DHT22;8704;52.006;4.374;2022-11-09T03:27:19;12.20;99.90
17178;DHT22;8704;52.006;4.374;2022-11-09T03:29:48;12.20;99.90
17178;DHT22;8704;52.006;4.374;2022-11-09T03:32:16;12.40;99.90
17178;DHT22;8704;52.006;4.374;2022-11-09T03:34:44;12.10;99.90
17178;DHT22;8704;52.006;4.374;2022-11-09T03:37:12;12.10;99.90
17178;DHT22;8704;52.006;4.374;2022-11-09T03:39:40;12.10;99.90
17178;DHT22;8704;52.006;4.374;2022-11-09T03:42:08;12.10;99.90
17178;DHT22;8704;52.006;4.374;2022-11-09T03:44:36;12.10;99.90
17178;DHT22;8704;52.006;4.374;2022-11-09T03:47:05;12.00;99.90
17178;DHT22;8704;52.006;4.374;2022-11-09T03:49:33;12.10;99.90
17178;DHT22;8704;52.006;4.374;2022-11-09T03:52:01;12.10;99.90
17178;DHT22;8704;52.006;4.374;2022-11-09T03:54:29;12.10;99.90
17178;DHT22;8704;52.006;4.374;2022-11-09T03:56:57;12.10;99.90
17178;DHT22;8704;52.006;4.374;2022-11-09T03:59:25;12.20;99.90
17178;DHT22;8704;52.006;4.374;2022-11-09T04:01:53;12.20;99.90
17178;DHT22;8704;52.006;4.374;2022-11-09T04:04:22;12.20;99.90
17178;DHT22;8704;52.006;4.374;2022-11-09T04:06:50;12.20;99.90
17178;DHT22;8704;52.006;4.374;2022-11-09T04:09:18;12.20;99.90
17178;DHT22;8704;52.006;4.374;2022-11-09T04:11:46;12.10;99.90
17178;DHT22;8704;52.006;4.374;2022-11-09T04:14:14;12.10;99.90
17178;DHT22;8704;52.006;4.374;2022-11-09T04:16:42;12.10;99.90
17178;DHT22;8704;52.006;4.374;2022-11-09T04:19:10;12.10;99.90
17178;DHT22;8704;52.006;4.374;2022-11-09T04:21:39;12.10;99.90
17178;DHT22;8704;52.006;4.374;2022-11-09T04:24:07;12.00;99.90
17178;DHT22;8704;52.006;4.374;2022-11-09T04:26:35;12.00;99.90
17178;DHT22;8704;52.006;4.374;2022-11-09T04:29:03;12.00;99.90
17178;DHT22;8704;52.006;4.374;2022-11-09T04:31:31;12.00;99.90
17178;DHT22;8704;52.006;4.374;2022-11-09T04:33:59;11.90;99.90
17178;DHT22;8704;52.006;4.374;2022-11-09T04:36:27;11.90;99.90
17178;DHT22;8704;52.006;4.374;2022-11-09T04:38:56;11.80;99.90
17178;DHT22;8704;52.006;4.374;2022-11-09T04:41:24;11.80;99.90
17178;DHT22;8704;52.006;4.374;2022-11-09T04:43:53;11.80;99.90
17178;DHT22;8704;52.006;4.374;2022-11-09T04:46:21;11.70;99.90
17178;DHT22;8704;52.006;4.374;2022-11-09T04:48:49;11.70;99.90
17178;DHT22;8704;52.006;4.374;2022-11-09T04:51:17;11.70;99.90
17178;DHT22;8704;52.006;4.374;2022-11-09T04:53:45;11.70;99.90
17178;DHT22;8704;52.006;4.374;2022-11-09T04:56:15;11.70;99.90
17178;DHT22;8704;52.006;4.374;2022-11-09T04:58:43;11.20;99.90
17178;DHT22;8704;52.006;4.374;2022-11-09T05:01:12;11.70;99.90
17178;DHT22;8704;52.006;4.374;2022-11-09T05:03:41;12.00;99.90
17178;DHT22;8704;52.006;4.374;2022-11-09T05:06:09;11.90;99.90
17178;DHT22;8704;52.006;4.374;2022-11-09T05:09:02;11.80;99.90
17178;DHT22;8704;52.006;4.374;2022-11-09T05:11:32;11.70;99.90
17178;DHT22;8704;52.006;4.374;2022-11-09T05:14:00;11.70;99.90
17178;DHT22;8704;52.006;4.374;2022-11-09T05:16:29;11.70;99.90
17178;DHT22;8704;52.006;4.374;2022-11-09T05:18:57;11.70;99.90
17178;DHT22;8704;52.006;4.374;2022-11-09T05:21:25;11.60;99.90
17178;DHT22;8704;52.006;4.374;2022-11-09T05:23:53;11.60;99.90
17178;DHT22;8704;52.006;4.374;2022-11-09T05:26:27;11.50;99.90
17178;DHT22;8704;52.006;4.374;2022-11-09T05:28:57;11.50;99.90
17178;DHT22;8704;52.006;4.374;2022-11-09T05:31:26;11.50;99.90
17178;DHT22;8704;52.006;4.374;2022-11-09T05:33:55;11.50;99.90
17178;DHT22;8704;52.006;4.374;2022-11-09T05:36:23;11.40;99.90
17178;DHT22;8704;52.006;4.374;2022-11-09T05:38:51;11.40;99.90
17178;DHT22;8704;52.006;4.374;2022-11-09T05:41:19;11.40;99.90
17178;DHT22;8704;52.006;4.374;2022-11-09T05:43:48;11.40;99.90
17178;DHT22;8704;52.006;4.374;2022-11-09T05:46:18;11.40;99.90
17178;DHT22;8704;52.006;4.374;2022-11-09T05:48:46;11.40;99.90
17178;DHT22;8704;52.006;4.374;2022-11-09T05:51:14;11.40;99.90
17178;DHT22;8704;52.006;4.374;2022-11-09T05:53:42;11.40;99.90
17178;DHT22;8704;52.006;4.374;2022-11-09T05:56:13;11.30;99.90
17178;DHT22;8704;52.006;4.374;2022-11-09T05:58:41;11.30;99.90
17178;DHT22;8704;52.006;4.374;2022-11-09T06:01:11;11.30;99.90
17178;DHT22;8704;52.006;4.374;2022-11-09T06:03:40;11.30;99.90
17178;DHT22;8704;52.006;4.374;2022-11-09T06:06:12;11.30;99.90
17178;DHT22;8704;52.006;4.374;2022-11-09T06:08:40;11.30;99.90
17178;DHT22;8704;52.006;4.374;2022-11-09T06:11:10;11.30;99.90
17178;DHT22;8704;52.006;4.374;2022-11-09T06:13:47;11.30;99.90
17178;DHT22;8704;52.006;4.374;2022-11-09T06:16:15;11.30;99.90
17178;DHT22;8704;52.006;4.374;2022-11-09T06:18:45;11.30;99.90
17178;DHT22;8704;52.006;4.374;2022-11-09T06:21:13;11.50;99.90
17178;DHT22;8704;52.006;4.374;2022-11-09T06:23:40;11.30;99.90
17178;DHT22;8704;52.006;4.374;2022-11-09T06:26:09;11.30;99.90
17178;DHT22;8704;52.006;4.374;2022-11-09T06:28:38;11.30;99.90
17178;DHT22;8704;52.006;4.374;2022-11-09T06:31:09;11.30;99.90
17178;DHT22;8704;52.006;4.374;2022-11-09T06:33:38;11.30;99.90
17178;DHT22;8704;52.006;4.374;2022-11-09T06:36:08;11.30;99.90
17178;DHT22;8704;52.006;4.374;2022-11-09T06:38:36;11.30;99.90
17178;DHT22;8704;52.006;4.374;2022-11-09T06:41:05;11.30;99.90
17178;DHT22;8704;52.006;4.374;2022-11-09T06:43:33;11.30;99.90
17178;DHT22;8704;52.006;4.374;2022-11-09T06:46:02;11.30;99.90
17178;DHT22;8704;52.006;4.374;2022-11-09T06:48:30;11.30;99.90
17178;DHT22;8704;52.006;4.374;2022-11-09T06:51:02;11.30;99.90
17178;DHT22;8704;52.006;4.374;2022-11-09T06:53:32;11.40;99.90
17178;DHT22;8704;52.006;4.374;2022-11-09T06:56:01;11.40;99.90
17178;DHT22;8704;52.006;4.374;2022-11-09T06:58:30;11.40;99.90
17178;DHT22;8704;52.006;4.374;2022-11-09T07:00:58;11.40;99.90
17178;DHT22;8704;52.006;4.374;2022-11-09T07:03:26;11.40;99.90
17178;DHT22;8704;52.006;4.374;2022-11-09T07:05:54;11.40;99.90
17178;DHT22;8704;52.006;4.374;2022-11-09T07:08:22;11.40;99.90
17178;DHT22;8704;52.006;4.374;2022-11-09T07:10:51;11.40;99.90
17178;DHT22;8704;52.006;4.374;2022-11-09T07:13:19;11.50;99.90
17178;DHT22;8704;52.006;4.374;2022-11-09T07:15:51;11.50;99.90
17178;DHT22;8704;52.006;4.374;2022-11-09T07:18:20;11.50;99.90
17178;DHT22;8704;52.006;4.374;2022-11-09T07:20:48;11.60;99.90
17178;DHT22;8704;52.006;4.374;2022-11-09T07:23:16;11.50;99.90
17178;DHT22;8704;52.006;4.374;2022-11-09T07:25:45;11.60;99.90
17178;DHT22;8704;52.006;4.374;2022-11-09T07:28:14;11.50;99.90
17178;DHT22;8704;52.006;4.374;2022-11-09T07:30:43;11.60;99.90
17178;DHT22;8704;52.006;4.374;2022-11-09T07:33:13;11.50;99.90
17178;DHT22;8704;52.006;4.374;2022-11-09T07:35:41;11.50;99.90
17178;DHT22;8704;52.006;4.374;2022-11-09T07:38:09;11.50;99.90
17178;DHT22;8704;52.006;4.374;2022-11-09T07:40:38;11.50;99.90
17178;DHT22;8704;52.006;4.374;2022-11-09T07:43:06;11.60;99.90
17178;DHT22;8704;52.006;4.374;2022-11-09T07:45:36;11.60;99.90
17178;DHT22;8704;52.006;4.374;2022-11-09T07:48:06;11.60;99.90
17178;DHT22;8704;52.006;4.374;2022-11-09T07:50:36;11.70;99.90
17178;DHT22;8704;52.006;4.374;2022-11-09T07:53:05;11.70;99.90
17178;DHT22;8704;52.006;4.374;2022-11-09T07:55:34;11.70;99.90
17178;DHT22;8704;52.006;4.374;2022-11-09T07:58:03;11.70;99.90
17178;DHT22;8704;52.006;4.374;2022-11-09T08:00:32;11.80;99.90
17178;DHT22;8704;52.006;4.374;2022-11-09T08:03:02;11.80;99.90
17178;DHT22;8704;52.006;4.374;2022-11-09T08:05:31;11.80;99.90
17178;DHT22;8704;52.006;4.374;2022-11-09T08:08:00;11.80;99.90
17178;DHT22;8704;52.006;4.374;2022-11-09T08:10:30;11.90;99.90
17178;DHT22;8704;52.006;4.374;2022-11-09T08:13:00;11.90;99.90
17178;DHT22;8704;52.006;4.374;2022-11-09T08:15:29;11.90;99.90
17178;DHT22;8704;52.006;4.374;2022-11-09T08:17:59;11.90;99.90
17178;DHT22;8704;52.006;4.374;2022-11-09T08:20:29;12.00;99.90
17178;DHT22;8704;52.006;4.374;2022-11-09T08:22:57;12.00;99.90
17178;DHT22;8704;52.006;4.374;2022-11-09T08:25:30;12.00;99.90
17178;DHT22;8704;52.006;4.374;2022-11-09T08:27:58;12.00;99.90
17178;DHT22;8704;52.006;4.374;2022-11-09T08:30:26;12.10;99.90
17178;DHT22;8704;52.006;4.374;2022-11-09T08:32:55;12.10;99.90
17178;DHT22;8704;52.006;4.374;2022-11-09T08:35:23;12.10;99.90
17178;DHT22;8704;52.006;4.374;2022-11-09T08:37:53;12.20;99.90
17178;DHT22;8704;52.006;4.374;2022-11-09T08:40:22;12.10;99.90
17178;DHT22;8704;52.006;4.374;2022-11-09T08:42:51;12.20;99.90
17178;DHT22;8704;52.006;4.374;2022-11-09T08:45:20;12.20;99.90
17178;DHT22;8704;52.006;4.374;2022-11-09T08:47:48;12.20;99.90
17178;DHT22;8704;52.006;4.374;2022-11-09T08:50:16;12.20;99.90
17178;DHT22;8704;52.006;4.374;2022-11-09T08:52:44;12.30;99.90
17178;DHT22;8704;52.006;4.374;2022-11-09T08:55:13;12.30;99.90
17178;DHT22;8704;52.006;4.374;2022-11-09T08:57:41;12.10;99.90
17178;DHT22;8704;52.006;4.374;2022-11-09T09:00:10;12.40;99.90
17178;DHT22;8704;52.006;4.374;2022-11-09T09:02:38;12.30;99.90
17178;DHT22;8704;52.006;4.374;2022-11-09T09:05:06;12.30;99.90
17178;DHT22;8704;52.006;4.374;2022-11-09T09:07:34;12.30;99.90
17178;DHT22;8704;52.006;4.374;2022-11-09T09:10:03;12.30;99.90
17178;DHT22;8704;52.006;4.374;2022-11-09T09:12:32;12.30;99.90
17178;DHT22;8704;52.006;4.374;2022-11-09T09:15:00;12.70;99.90
17178;DHT22;8704;52.006;4.374;2022-11-09T09:17:28;12.40;99.90
17178;DHT22;8704;52.006;4.374;2022-11-09T09:19:56;12.40;99.90
17178;DHT22;8704;52.006;4.374;2022-11-09T09:22:24;12.40;99.90
17178;DHT22;8704;52.006;4.374;2022-11-09T09:24:52;12.40;99.90
17178;DHT22;8704;52.006;4.374;2022-11-09T09:27:20;12.40;99.90
17178;DHT22;8704;52.006;4.374;2022-11-09T09:29:50;12.20;99.90
17178;DHT22;8704;52.006;4.374;2022-11-09T09:32:18;12.50;99.90
17178;DHT22;8704;52.006;4.374;2022-11-09T09:34:45;12.50;99.90
17178;DHT22;8704;52.006;4.374;2022-11-09T09:37:15;12.60;99.90
17178;DHT22;8704;52.006;4.374;2022-11-09T09:39:43;12.60;99.90
17178;DHT22;8704;52.006;4.374;2022-11-09T09:42:15;12.60;99.90
17178;DHT22;8704;52.006;4.374;2022-11-09T09:44:48;12.60;99.90
17178;DHT22;8704;52.006;4.374;2022-11-09T09:47:22;12.60;99.90
17178;DHT22;8704;52.006;4.374;2022-11-09T09:49:54;12.70;99.90
17178;DHT22;8704;52.006;4.374;2022-11-09T09:52:32;12.70;99.90
17178;DHT22;8704;52.006;4.374;2022-11-09T09:55:06;12.70;99.90
17178;DHT22;8704;52.006;4.374;2022-11-09T09:57:36;12.70;99.90
17178;DHT22;8704;52.006;4.374;2022-11-09T10:00:17;12.70;99.90
17178;DHT22;8704;52.006;4.374;2022-11-09T10:02:47;12.70;99.90
17178;DHT22;8704;52.006;4.374;2022-11-09T10:05:17;12.80;99.90
17178;DHT22;8704;52.006;4.374;2022-11-09T10:07:50;12.70;99.90
17178;DHT22;8704;52.006;4.374;2022-11-09T10:10:30;12.80;99.90
17178;DHT22;8704;52.006;4.374;2022-11-09T10:15:59;12.80;99.90
17178;DHT22;8704;52.006;4.374;2022-11-09T10:18:36;12.70;99.90
17178;DHT22;8704;52.006;4.374;2022-11-09T10:21:22;12.70;99.90
17178;DHT22;8704;52.006;4.374;2022-11-09T10:24:02;12.70;99.90
17178;DHT22;8704;52.006;4.374;2022-11-09T10:26:38;12.70;99.90
17178;DHT22;8704;52.006;4.374;2022-11-09T10:29:19;12.80;99.90
17178;DHT22;8704;52.006;4.374;2022-11-09T10:31:50;12.80;99.90
17178;DHT22;8704;52.006;4.374;2022-11-09T10:34:24;12.90;99.90
17178;DHT22;8704;52.006;4.374;2022-11-09T10:36:59;12.90;99.90
17178;DHT22;8704;52.006;4.374;2022-11-09T10:39:36;13.00;99.90
17178;DHT22;8704;52.006;4.374;2022-11-09T10:42:09;13.00;99.90
17178;DHT22;8704;52.006;4.374;2022-11-09T10:44:37;13.10;99.90
17178;DHT22;8704;52.006;4.374;2022-11-09T10:47:07;13.10;99.90
17178;DHT22;8704;52.006;4.374;2022-11-09T10:49:38;13.10;99.90
17178;DHT22;8704;52.006;4.374;2022-11-09T10:52:29;13.10;99.90
17178;DHT22;8704;52.006;4.374;2022-11-09T10:55:22;13.10;99.90
17178;DHT22;8704;52.006;4.374;2022-11-09T10:57:53;13.10;99.90
17178;DHT22;8704;52.006;4.374;2022-11-09T11:00:22;13.10;99.90
17178;DHT22;8704;52.006;4.374;2022-11-09T11:02:50;13.10;99.90
17178;DHT22;8704;52.006;4.374;2022-11-09T11:05:32;13.10;99.90
17178;DHT22;8704;52.006;4.374;2022-11-09T11:08:21;13.10;99.90
17178;DHT22;8704;52.006;4.374;2022-11-09T11:10:49;13.10;99.90
17178;DHT22;8704;52.006;4.374;2022-11-09T11:13:32;13.00;99.90
17178;DHT22;8704;52.006;4.374;2022-11-09T11:16:00;13.10;99.90
17178;DHT22;8704;52.006;4.374;2022-11-09T11:18:29;13.00;99.90
17178;DHT22;8704;52.006;4.374;2022-11-09T11:21:13;13.00;99.90
17178;DHT22;8704;52.006;4.374;2022-11-09T11:24:04;13.90;99.90
17178;DHT22;8704;52.006;4.374;2022-11-09T11:26:41;13.10;99.90
17178;DHT22;8704;52.006;4.374;2022-11-09T11:29:28;13.10;99.90
17178;DHT22;8704;52.006;4.374;2022-11-09T11:31:58;13.10;99.90
17178;DHT22;8704;52.006;4.374;2022-11-09T11:34:26;13.30;99.90
17178;DHT22;8704;52.006;4.374;2022-11-09T11:37:27;13.30;99.90
17178;DHT22;8704;52.006;4.374;2022-11-09T11:40:02;13.30;99.90
17178;DHT22;8704;52.006;4.374;2022-11-09T11:43:04;13.60;99.90
17178;DHT22;8704;52.006;4.374;2022-11-09T11:45:35;13.20;99.90
17178;DHT22;8704;52.006;4.374;2022-11-09T11:48:24;13.20;99.90
17178;DHT22;8704;52.006;4.374;2022-11-09T11:51:01;13.20;99.90
17178;DHT22;8704;52.006;4.374;2022-11-09T11:53:49;13.20;99.90
17178;DHT22;8704;52.006;4.374;2022-11-09T11:56:23;13.10;99.90
17178;DHT22;8704;52.006;4.374;2022-11-09T11:59:29;13.20;99.90
17178;DHT22;8704;52.006;4.374;2022-11-09T12:02:25;13.20;99.90
17178;DHT22;8704;52.006;4.374;2022-11-09T12:05:27;13.20;99.90
17178;DHT22;8704;52.006;4.374;2022-11-09T12:08:04;13.20;99.90
17178;DHT22;8704;52.006;4.374;2022-11-09T12:10:45;13.30;99.90
17178;DHT22;8704;52.006;4.374;2022-11-09T12:16:21;13.40;99.90
17178;DHT22;8704;52.006;4.374;2022-11-09T12:19:05;13.50;99.90
17178;DHT22;8704;52.006;4.374;2022-11-09T12:21:41;12.70;99.90
17178;DHT22;8704;52.006;4.374;2022-11-09T12:24:20;13.70;99.90
17178;DHT22;8704;52.006;4.374;2022-11-09T12:27:03;13.70;99.90
17178;DHT22;8704;52.006;4.374;2022-11-09T12:30:00;13.80;99.90
17178;DHT22;8704;52.006;4.374;2022-11-09T12:32:36;13.90;99.90
17178;DHT22;8704;52.006;4.374;2022-11-09T12:35:21;13.90;99.90
17178;DHT22;8704;52.006;4.374;2022-11-09T12:37:54;13.90;99.90
17178;DHT22;8704;52.006;4.374;2022-11-09T12:40:23;14.00;99.90
17178;DHT22;8704;52.006;4.374;2022-11-09T12:42:58;14.20;99.90
17178;DHT22;8704;52.006;4.374;2022-11-09T12:45:31;14.20;99.90
17178;DHT22;8704;52.006;4.374;2022-11-09T12:48:04;14.10;99.90
17178;DHT22;8704;52.006;4.374;2022-11-09T12:50:33;14.20;99.90
17178;DHT22;8704;52.006;4.374;2022-11-09T12:53:02;14.10;99.90
17178;DHT22;8704;52.006;4.374;2022-11-09T12:55:38;14.00;99.90
17178;DHT22;8704;52.006;4.374;2022-11-09T12:58:21;14.10;99.90
17178;DHT22;8704;52.006;4.374;2022-11-09T13:00:52;14.20;99.90
17178;DHT22;8704;52.006;4.374;2022-11-09T13:03:26;14.20;99.90
17178;DHT22;8704;52.006;4.374;2022-11-09T13:06:15;14.20;99.90
17178;DHT22;8704;52.006;4.374;2022-11-09T13:08:55;14.20;99.90
17178;DHT22;8704;52.006;4.374;2022-11-09T13:11:36;14.20;99.90
17178;DHT22;8704;52.006;4.374;2022-11-09T13:14:32;14.20;99.90
17178;DHT22;8704;52.006;4.374;2022-11-09T13:17:49;14.20;99.90
17178;DHT22;8704;52.006;4.374;2022-11-09T13:19:53;14.30;99.90
17178;DHT22;8704;52.006;4.374;2022-11-09T13:22:57;14.30;99.90
17178;DHT22;8704;52.006;4.374;2022-11-09T13:25:44;14.30;99.90
17178;DHT22;8704;52.006;4.374;2022-11-09T13:28:39;14.30;99.90
17178;DHT22;8704;52.006;4.374;2022-11-09T13:31:09;14.40;99.90
17178;DHT22;8704;52.006;4.374;2022-11-09T13:33:37;14.40;99.90
17178;DHT22;8704;52.006;4.374;2022-11-09T13:36:18;14.50;99.90
17178;DHT22;8704;52.006;4.374;2022-11-09T13:41:55;14.50;99.90
17178;DHT22;8704;52.006;4.374;2022-11-09T13:44:26;14.50;99.90
17178;DHT22;8704;52.006;4.374;2022-11-09T13:47:04;14.50;99.90
17178;DHT22;8704;52.006;4.374;2022-11-09T13:49:45;14.40;99.90
17178;DHT22;8704;52.006;4.374;2022-11-09T13:52:46;14.40;99.90
17178;DHT22;8704;52.006;4.374;2022-11-09T13:55:20;14.30;99.90
17178;DHT22;8704;52.006;4.374;2022-11-09T13:57:49;14.30;99.90
17178;DHT22;8704;52.006;4.374;2022-11-09T14:00:20;14.30;99.90
17178;DHT22;8704;52.006;4.374;2022-11-09T14:02:56;14.30;99.90
17178;DHT22;8704;52.006;4.374;2022-11-09T14:05:27;14.20;99.90
17178;DHT22;8704;52.006;4.374;2022-11-09T14:07:59;14.20;99.90
17178;DHT22;8704;52.006;4.374;2022-11-09T14:10:39;14.10;99.90
17178;DHT22;8704;52.006;4.374;2022-11-09T14:13:31;14.00;99.90
17178;DHT22;8704;52.006;4.374;2022-11-09T14:16:05;14.00;99.90
17178;DHT22;8704;52.006;4.374;2022-11-09T14:18:57;14.00;99.90
17178;DHT22;8704;52.006;4.374;2022-11-09T14:21:37;14.00;99.90
17178;DHT22;8704;52.006;4.374;2022-11-09T14:24:13;14.00;99.90
17178;DHT22;8704;52.006;4.374;2022-11-09T14:26:57;14.00;99.90
17178;DHT22;8704;52.006;4.374;2022-11-09T14:29:26;14.10;99.90
17178;DHT22;8704;52.006;4.374;2022-11-09T14:31:59;14.10;99.90
17178;DHT22;8704;52.006;4.374;2022-11-09T14:34:29;14.10;99.90
17178;DHT22;8704;52.006;4.374;2022-11-09T14:36:57;14.00;99.90
17178;DHT22;8704;52.006;4.374;2022-11-09T14:39:32;14.00;99.90
17178;DHT22;8704;52.006;4.374;2022-11-09T14:42:00;13.90;99.90
17178;DHT22;8704;52.006;4.374;2022-11-09T14:44:29;13.90;99.90
17178;DHT22;8704;52.006;4.374;2022-11-09T14:47:02;13.90;99.90
17178;DHT22;8704;52.006;4.374;2022-11-09T14:49:33;13.90;99.90
17178;DHT22;8704;52.006;4.374;2022-11-09T14:52:01;13.90;99.90
17178;DHT22;8704;52.006;4.374;2022-11-09T14:54:30;13.90;99.90
17178;DHT22;8704;52.006;4.374;2022-11-09T14:56:59;13.80;99.90
17178;DHT22;8704;52.006;4.374;2022-11-09T14:59:32;13.60;99.90
17178;DHT22;8704;52.006;4.374;2022-11-09T15:02:05;13.70;99.90
17178;DHT22;8704;52.006;4.374;2022-11-09T15:04:56;13.70;99.90
17178;DHT22;8704;52.006;4.374;2022-11-09T15:07:26;13.70;99.90
17178;DHT22;8704;52.006;4.374;2022-11-09T15:09:57;13.70;99.90
17178;DHT22;8704;52.006;4.374;2022-11-09T15:12:26;13.70;99.90
17178;DHT22;8704;52.006;4.374;2022-11-09T15:14:57;13.70;99.90
17178;DHT22;8704;52.006;4.374;2022-11-09T15:17:29;13.70;99.90
17178;DHT22;8704;52.006;4.374;2022-11-09T15:20:00;13.70;99.90
17178;DHT22;8704;52.006;4.374;2022-11-09T15:22:50;13.60;99.90
17178;DHT22;8704;52.006;4.374;2022-11-09T15:25:22;13.60;99.90
17178;DHT22;8704;52.006;4.374;2022-11-09T15:27:57;13.50;99.90
17178;DHT22;8704;52.006;4.374;2022-11-09T15:30:30;13.50;99.90
17178;DHT22;8704;52.006;4.374;2022-11-09T15:32:59;13.40;99.90
17178;DHT22;8704;52.006;4.374;2022-11-09T15:35:28;13.40;99.90
17178;DHT22;8704;52.006;4.374;2022-11-09T15:37:56;13.40;99.90
17178;DHT22;8704;52.006;4.374;2022-11-09T15:40:24;13.30;99.90
17178;DHT22;8704;52.006;4.374;2022-11-09T15:42:52;13.30;99.90
17178;DHT22;8704;52.006;4.374;2022-11-09T15:45:20;13.20;99.90
17178;DHT22;8704;52.006;4.374;2022-11-09T15:47:50;13.20;99.90
17178;DHT22;8704;52.006;4.374;2022-11-09T15:50:23;13.20;99.90
17178;DHT22;8704;52.006;4.374;2022-11-09T15:52:52;13.10;99.90
17178;DHT22;8704;52.006;4.374;2022-11-09T15:55:21;13.00;99.90
17178;DHT22;8704;52.006;4.374;2022-11-09T15:57:50;13.10;99.90
17178;DHT22;8704;52.006;4.374;2022-11-09T16:00:20;13.90;99.90
17178;DHT22;8704;52.006;4.374;2022-11-09T16:02:48;13.00;99.90
17178;DHT22;8704;52.006;4.374;2022-11-09T16:05:16;13.10;99.90
17178;DHT22;8704;52.006;4.374;2022-11-09T16:07:51;13.00;99.90
17178;DHT22;8704;52.006;4.374;2022-11-09T16:10:21;12.90;99.90
17178;DHT22;8704;52.006;4.374;2022-11-09T16:12:51;12.90;99.90
17178;DHT22;8704;52.006;4.374;2022-11-09T16:15:22;12.90;99.90
17178;DHT22;8704;52.006;4.374;2022-11-09T16:17:51;12.80;99.90
17178;DHT22;8704;52.006;4.374;2022-11-09T16:20:19;12.80;99.90
17178;DHT22;8704;52.006;4.374;2022-11-09T16:22:47;12.80;99.90